sensor_id;sensor_type;location;lat;lon;timestamp;P1;durP1;ratioP1;P2;durP2;ratioP2
14849;SDS011;7517;48.400;11.770;2023-04-25T00:00:35;1.73;;;1.63;;
14849;SDS011;7517;48.400;11.770;2023-04-25T00:03:03;1.50;;;1.40;;
14849;SDS011;7517;48.400;11.770;2023-04-25T00:05:30;1.80;;;1.70;;
14849;SDS011;7517;48.400;11.770;2023-04-25T00:07:59;1.77;;;1.67;;
14849;SDS011;7517;48.400;11.770;2023-04-25T00:10:27;1.80;;;1.70;;
14849;SDS011;7517;48.400;11.770;2023-04-25T00:12:54;1.67;;;1.57;;
14849;SDS011;7517;48.400;11.770;2023-04-25T00:15:22;1.60;;;1.50;;
14849;SDS011;7517;48.400;11.770;2023-04-25T00:17:50;1.40;;;1.30;;
14849;SDS011;7517;48.400;11.770;2023-04-25T00:20:18;1.77;;;1.40;;
14849;SDS011;7517;48.400;11.770;2023-04-25T00:22:45;2.10;;;1.60;;
14849;SDS011;7517;48.400;11.770;2023-04-25T00:25:14;1.30;;;1.20;;
14849;SDS011;7517;48.400;11.770;2023-04-25T00:27:41;2.63;;;1.70;;
14849;SDS011;7517;48.400;11.770;2023-04-25T00:30:09;1.73;;;1.63;;
14849;SDS011;7517;48.400;11.770;2023-04-25T00:32:38;1.63;;;1.53;;
14849;SDS011;7517;48.400;11.770;2023-04-25T00:35:05;1.60;;;1.50;;
14849;SDS011;7517;48.400;11.770;2023-04-25T00:37:34;1.50;;;1.40;;
14849;SDS011;7517;48.400;11.770;2023-04-25T00:40:02;1.50;;;1.40;;
14849;SDS011;7517;48.400;11.770;2023-04-25T00:42:34;1.60;;;1.50;;
14849;SDS011;7517;48.400;11.770;2023-04-25T00:45:02;2.60;;;1.87;;
14849;SDS011;7517;48.400;11.770;2023-04-25T00:47:33;1.60;;;1.50;;
14849;SDS011;7517;48.400;11.770;2023-04-25T00:50:02;2.07;;;1.57;;
14849;SDS011;7517;48.400;11.770;2023-04-25T00:52:32;2.33;;;1.60;;
14849;SDS011;7517;48.400;11.770;2023-04-25T00:55:00;1.70;;;1.60;;
14849;SDS011;7517;48.400;11.770;2023-04-25T00:57:27;1.50;;;1.40;;
14849;SDS011;7517;48.400;11.770;2023-04-25T00:59:56;1.67;;;1.43;;
14849;SDS011;7517;48.400;11.770;2023-04-25T01:02:25;1.40;;;1.30;;
14849;SDS011;7517;48.400;11.770;2023-04-25T01:04:53;1.50;;;1.40;;
14849;SDS011;7517;48.400;11.770;2023-04-25T01:07:20;1.43;;;1.30;;
14849;SDS011;7517;48.400;11.770;2023-04-25T01:09:48;1.73;;;1.20;;
14849;SDS011;7517;48.400;11.770;2023-04-25T01:12:20;1.93;;;1.57;;
14849;SDS011;7517;48.400;11.770;2023-04-25T01:14:47;1.27;;;1.17;;
14849;SDS011;7517;48.400;11.770;2023-04-25T01:17:16;1.23;;;1.13;;
14849;SDS011;7517;48.400;11.770;2023-04-25T01:19:44;2.67;;;1.17;;
14849;SDS011;7517;48.400;11.770;2023-04-25T01:22:14;1.60;;;1.50;;
14849;SDS011;7517;48.400;11.770;2023-04-25T01:24:42;1.70;;;1.17;;
14849;SDS011;7517;48.400;11.770;2023-04-25T01:27:11;2.03;;;1.60;;
14849;SDS011;7517;48.400;11.770;2023-04-25T01:29:39;1.20;;;1.20;;
14849;SDS011;7517;48.400;11.770;2023-04-25T01:32:06;1.50;;;1.40;;
14849;SDS011;7517;48.400;11.770;2023-04-25T01:34:35;1.47;;;1.37;;
14849;SDS011;7517;48.400;11.770;2023-04-25T01:37:02;1.53;;;1.33;;
14849;SDS011;7517;48.400;11.770;2023-04-25T01:39:31;1.10;;;1.10;;
14849;SDS011;7517;48.400;11.770;2023-04-25T01:41:59;1.40;;;1.30;;
14849;SDS011;7517;48.400;11.770;2023-04-25T01:44:26;2.07;;;1.30;;
14849;SDS011;7517;48.400;11.770;2023-04-25T01:46:54;1.30;;;1.20;;
14849;SDS011;7517;48.400;11.770;2023-04-25T01:49:21;1.50;;;1.40;;
14849;SDS011;7517;48.400;11.770;2023-04-25T01:51:48;1.40;;;1.30;;
14849;SDS011;7517;48.400;11.770;2023-04-25T01:54:16;1.50;;;1.40;;
14849;SDS011;7517;48.400;11.770;2023-04-25T01:56:50;1.30;;;1.20;;
14849;SDS011;7517;48.400;11.770;2023-04-25T01:59:18;1.43;;;1.20;;
14849;SDS011;7517;48.400;11.770;2023-04-25T02:01:47;1.40;;;1.30;;
14849;SDS011;7517;48.400;11.770;2023-04-25T02:04:14;1.47;;;1.37;;
14849;SDS011;7517;48.400;11.770;2023-04-25T02:06:41;1.93;;;1.60;;
14849;SDS011;7517;48.400;11.770;2023-04-25T02:09:08;2.60;;;1.57;;
14849;SDS011;7517;48.400;11.770;2023-04-25T02:11:35;1.13;;;1.10;;
14849;SDS011;7517;48.400;11.770;2023-04-25T02:14:04;1.30;;;1.20;;
14849;SDS011;7517;48.400;11.770;2023-04-25T02:16:31;1.60;;;1.50;;
14849;SDS011;7517;48.400;11.770;2023-04-25T02:18:59;1.63;;;1.30;;
14849;SDS011;7517;48.400;11.770;2023-04-25T02:21:26;1.60;;;1.37;;
14849;SDS011;7517;48.400;11.770;2023-04-25T02:23:53;2.13;;;1.60;;
14849;SDS011;7517;48.400;11.770;2023-04-25T02:26:20;1.33;;;1.23;;
14849;SDS011;7517;48.400;11.770;2023-04-25T02:28:49;1.60;;;1.47;;
14849;SDS011;7517;48.400;11.770;2023-04-25T02:31:18;1.53;;;1.20;;
14849;SDS011;7517;48.400;11.770;2023-04-25T02:33:45;2.10;;;1.57;;
14849;SDS011;7517;48.400;11.770;2023-04-25T02:36:13;1.23;;;1.17;;
14849;SDS011;7517;48.400;11.770;2023-04-25T02:38:41;1.50;;;1.40;;
14849;SDS011;7517;48.400;11.770;2023-04-25T02:41:08;1.30;;;1.20;;
14849;SDS011;7517;48.400;11.770;2023-04-25T02:43:35;1.40;;;1.23;;
14849;SDS011;7517;48.400;11.770;2023-04-25T02:46:03;1.53;;;1.43;;
14849;SDS011;7517;48.400;11.770;2023-04-25T02:48:32;1.50;;;1.40;;
14849;SDS011;7517;48.400;11.770;2023-04-25T02:50:59;1.40;;;1.30;;
14849;SDS011;7517;48.400;11.770;2023-04-25T02:53:26;1.30;;;1.20;;
14849;SDS011;7517;48.400;11.770;2023-04-25T02:55:53;1.50;;;1.40;;
14849;SDS011;7517;48.400;11.770;2023-04-25T02:58:23;1.57;;;1.47;;
14849;SDS011;7517;48.400;11.770;2023-04-25T03:00:50;1.57;;;1.30;;
14849;SDS011;7517;48.400;11.770;2023-04-25T03:03:17;1.60;;;1.50;;
14849;SDS011;7517;48.400;11.770;2023-04-25T03:05:48;2.67;;;1.50;;
14849;SDS011;7517;48.400;11.770;2023-04-25T03:08:15;1.40;;;1.30;;
14849;SDS011;7517;48.400;11.770;2023-04-25T03:10:43;2.40;;;1.67;;
14849;SDS011;7517;48.400;11.770;2023-04-25T03:13:11;1.30;;;1.23;;
14849;SDS011;7517;48.400;11.770;2023-04-25T03:15:38;1.60;;;1.50;;
14849;SDS011;7517;48.400;11.770;2023-04-25T03:18:05;1.97;;;1.80;;
14849;SDS011;7517;48.400;11.770;2023-04-25T03:20:32;1.60;;;1.50;;
14849;SDS011;7517;48.400;11.770;2023-04-25T03:23:01;1.87;;;1.33;;
14849;SDS011;7517;48.400;11.770;2023-04-25T03:25:29;1.33;;;1.23;;
14849;SDS011;7517;48.400;11.770;2023-04-25T03:27:56;1.50;;;1.40;;
14849;SDS011;7517;48.400;11.770;2023-04-25T03:30:23;1.60;;;1.50;;
14849;SDS011;7517;48.400;11.770;2023-04-25T03:32:51;1.50;;;1.40;;
14849;SDS011;7517;48.400;11.770;2023-04-25T03:35:18;1.63;;;1.17;;
14849;SDS011;7517;48.400;11.770;2023-04-25T03:37:45;1.57;;;1.47;;
14849;SDS011;7517;48.400;11.770;2023-04-25T03:40:13;1.70;;;1.60;;
14849;SDS011;7517;48.400;11.770;2023-04-25T03:42:41;2.07;;;1.60;;
14849;SDS011;7517;48.400;11.770;2023-04-25T03:45:08;1.53;;;1.40;;
14849;SDS011;7517;48.400;11.770;2023-04-25T03:47:36;1.33;;;1.23;;
14849;SDS011;7517;48.400;11.770;2023-04-25T03:50:03;1.50;;;1.40;;
14849;SDS011;7517;48.400;11.770;2023-04-25T03:52:32;2.43;;;1.50;;
14849;SDS011;7517;48.400;11.770;2023-04-25T03:54:59;1.87;;;1.53;;
14849;SDS011;7517;48.400;11.770;2023-04-25T03:57:27;1.70;;;1.60;;
14849;SDS011;7517;48.400;11.770;2023-04-25T03:59:55;1.60;;;1.40;;
14849;SDS011;7517;48.400;11.770;2023-04-25T04:02:22;2.27;;;1.50;;
14849;SDS011;7517;48.400;11.770;2023-04-25T04:04:49;1.93;;;1.80;;
14849;SDS011;7517;48.400;11.770;2023-04-25T04:07:16;1.60;;;1.40;;
14849;SDS011;7517;48.400;11.770;2023-04-25T04:09:43;1.90;;;1.80;;
14849;SDS011;7517;48.400;11.770;2023-04-25T04:12:11;1.43;;;1.33;;
14849;SDS011;7517;48.400;11.770;2023-04-25T04:14:39;4.23;;;1.70;;
14849;SDS011;7517;48.400;11.770;2023-04-25T04:17:06;1.90;;;1.60;;
14849;SDS011;7517;48.400;11.770;2023-04-25T04:19:34;2.47;;;1.50;;
14849;SDS011;7517;48.400;11.770;2023-04-25T04:22:02;2.20;;;1.60;;
14849;SDS011;7517;48.400;11.770;2023-04-25T04:24:29;1.70;;;1.60;;
14849;SDS011;7517;48.400;11.770;2023-04-25T04:26:56;1.57;;;1.47;;
14849;SDS011;7517;48.400;11.770;2023-04-25T04:29:24;1.60;;;1.43;;
14849;SDS011;7517;48.400;11.770;2023-04-25T04:31:52;1.80;;;1.70;;
14849;SDS011;7517;48.400;11.770;2023-04-25T04:34:23;1.73;;;1.60;;
14849;SDS011;7517;48.400;11.770;2023-04-25T04:36:52;2.30;;;1.53;;
14849;SDS011;7517;48.400;11.770;2023-04-25T04:39:20;2.33;;;1.67;;
14849;SDS011;7517;48.400;11.770;2023-04-25T04:41:47;1.70;;;1.60;;
14849;SDS011;7517;48.400;11.770;2023-04-25T04:44:16;1.97;;;1.30;;
14849;SDS011;7517;48.400;11.770;2023-04-25T04:46:43;1.50;;;1.40;;
14849;SDS011;7517;48.400;11.770;2023-04-25T04:49:13;1.60;;;1.47;;
14849;SDS011;7517;48.400;11.770;2023-04-25T04:51:40;1.60;;;1.50;;
14849;SDS011;7517;48.400;11.770;2023-04-25T04:54:09;1.30;;;1.20;;
14849;SDS011;7517;48.400;11.770;2023-04-25T04:56:36;1.53;;;1.43;;
14849;SDS011;7517;48.400;11.770;2023-04-25T04:59:04;1.77;;;1.50;;
14849;SDS011;7517;48.400;11.770;2023-04-25T05:01:32;1.53;;;1.40;;
14849;SDS011;7517;48.400;11.770;2023-04-25T05:04:00;1.77;;;1.30;;
14849;SDS011;7517;48.400;11.770;2023-04-25T05:06:29;1.20;;;1.10;;
14849;SDS011;7517;48.400;11.770;2023-04-25T05:08:57;1.40;;;1.30;;
14849;SDS011;7517;48.400;11.770;2023-04-25T05:11:26;1.30;;;1.20;;
14849;SDS011;7517;48.400;11.770;2023-04-25T05:13:53;1.77;;;1.30;;
14849;SDS011;7517;48.400;11.770;2023-04-25T05:16:21;1.47;;;1.37;;
14849;SDS011;7517;48.400;11.770;2023-04-25T05:18:48;1.03;;;1.00;;
14849;SDS011;7517;48.400;11.770;2023-04-25T05:21:15;1.17;;;0.97;;
14849;SDS011;7517;48.400;11.770;2023-04-25T05:23:44;1.30;;;1.20;;
14849;SDS011;7517;48.400;11.770;2023-04-25T05:26:12;0.70;;;0.70;;
14849;SDS011;7517;48.400;11.770;2023-04-25T05:28:39;1.20;;;1.00;;
14849;SDS011;7517;48.400;11.770;2023-04-25T05:31:07;1.00;;;1.00;;
14849;SDS011;7517;48.400;11.770;2023-04-25T05:33:36;1.20;;;1.10;;
14849;SDS011;7517;48.400;11.770;2023-04-25T05:36:04;1.20;;;1.10;;
14849;SDS011;7517;48.400;11.770;2023-04-25T05:38:33;2.30;;;1.60;;
14849;SDS011;7517;48.400;11.770;2023-04-25T05:41:01;1.40;;;1.30;;
14849;SDS011;7517;48.400;11.770;2023-04-25T05:43:29;1.80;;;1.13;;
14849;SDS011;7517;48.400;11.770;2023-04-25T05:45:56;1.20;;;1.10;;
14849;SDS011;7517;48.400;11.770;2023-04-25T05:48:24;1.00;;;0.90;;
14849;SDS011;7517;48.400;11.770;2023-04-25T05:50:53;1.17;;;1.07;;
14849;SDS011;7517;48.400;11.770;2023-04-25T05:53:21;1.40;;;1.30;;
14849;SDS011;7517;48.400;11.770;2023-04-25T05:55:48;1.27;;;1.13;;
14849;SDS011;7517;48.400;11.770;2023-04-25T05:58:17;1.20;;;1.10;;
14849;SDS011;7517;48.400;11.770;2023-04-25T06:00:44;1.00;;;1.00;;
14849;SDS011;7517;48.400;11.770;2023-04-25T06:03:12;1.50;;;0.87;;
14849;SDS011;7517;48.400;11.770;2023-04-25T06:05:41;1.70;;;1.10;;
14849;SDS011;7517;48.400;11.770;2023-04-25T06:08:08;1.67;;;1.10;;
14849;SDS011;7517;48.400;11.770;2023-04-25T06:10:36;1.53;;;1.33;;
14849;SDS011;7517;48.400;11.770;2023-04-25T06:13:03;1.80;;;1.00;;
14849;SDS011;7517;48.400;11.770;2023-04-25T06:15:32;1.40;;;1.10;;
14849;SDS011;7517;48.400;11.770;2023-04-25T06:18:00;0.80;;;0.80;;
14849;SDS011;7517;48.400;11.770;2023-04-25T06:20:27;1.17;;;1.00;;
14849;SDS011;7517;48.400;11.770;2023-04-25T06:22:55;1.50;;;0.90;;
14849;SDS011;7517;48.400;11.770;2023-04-25T06:25:22;1.30;;;1.20;;
14849;SDS011;7517;48.400;11.770;2023-04-25T06:27:50;1.60;;;0.90;;
14849;SDS011;7517;48.400;11.770;2023-04-25T06:30:17;1.17;;;1.07;;
14849;SDS011;7517;48.400;11.770;2023-04-25T06:32:50;1.07;;;1.00;;
14849;SDS011;7517;48.400;11.770;2023-04-25T06:35:18;1.50;;;1.30;;
14849;SDS011;7517;48.400;11.770;2023-04-25T06:37:45;1.67;;;1.10;;
14849;SDS011;7517;48.400;11.770;2023-04-25T06:40:12;1.47;;;1.10;;
14849;SDS011;7517;48.400;11.770;2023-04-25T06:42:40;2.77;;;1.30;;
14849;SDS011;7517;48.400;11.770;2023-04-25T06:45:07;1.10;;;1.00;;
14849;SDS011;7517;48.400;11.770;2023-04-25T06:47:36;1.70;;;1.40;;
14849;SDS011;7517;48.400;11.770;2023-04-25T06:50:05;2.13;;;1.50;;
14849;SDS011;7517;48.400;11.770;2023-04-25T06:52:34;1.63;;;1.20;;
14849;SDS011;7517;48.400;11.770;2023-04-25T06:55:01;1.43;;;1.33;;
14849;SDS011;7517;48.400;11.770;2023-04-25T06:57:29;1.50;;;1.13;;
14849;SDS011;7517;48.400;11.770;2023-04-25T06:59:57;1.30;;;1.20;;
14849;SDS011;7517;48.400;11.770;2023-04-25T07:02:24;1.07;;;0.97;;
14849;SDS011;7517;48.400;11.770;2023-04-25T07:04:51;2.53;;;1.23;;
14849;SDS011;7517;48.400;11.770;2023-04-25T07:07:24;2.03;;;1.23;;
14849;SDS011;7517;48.400;11.770;2023-04-25T07:09:51;1.20;;;1.10;;
14849;SDS011;7517;48.400;11.770;2023-04-25T07:12:18;1.00;;;0.90;;
14849;SDS011;7517;48.400;11.770;2023-04-25T07:14:45;0.80;;;0.80;;
14849;SDS011;7517;48.400;11.770;2023-04-25T07:17:12;1.13;;;1.10;;
14849;SDS011;7517;48.400;11.770;2023-04-25T07:19:40;1.20;;;0.80;;
14849;SDS011;7517;48.400;11.770;2023-04-25T07:22:08;1.40;;;1.10;;
14849;SDS011;7517;48.400;11.770;2023-04-25T07:24:37;1.33;;;1.23;;
14849;SDS011;7517;48.400;11.770;2023-04-25T07:27:04;1.60;;;1.20;;
14849;SDS011;7517;48.400;11.770;2023-04-25T07:29:32;1.30;;;1.20;;
14849;SDS011;7517;48.400;11.770;2023-04-25T07:32:02;1.13;;;1.07;;
14849;SDS011;7517;48.400;11.770;2023-04-25T07:34:30;1.33;;;1.23;;
14849;SDS011;7517;48.400;11.770;2023-04-25T07:36:57;1.70;;;1.30;;
14849;SDS011;7517;48.400;11.770;2023-04-25T07:39:25;1.77;;;1.50;;
14849;SDS011;7517;48.400;11.770;2023-04-25T07:41:54;1.50;;;1.40;;
14849;SDS011;7517;48.400;11.770;2023-04-25T07:44:23;1.27;;;1.17;;
14849;SDS011;7517;48.400;11.770;2023-04-25T07:46:51;1.53;;;1.13;;
14849;SDS011;7517;48.400;11.770;2023-04-25T07:49:18;1.30;;;1.20;;
14849;SDS011;7517;48.400;11.770;2023-04-25T07:51:46;1.50;;;1.40;;
14849;SDS011;7517;48.400;11.770;2023-04-25T07:54:14;1.87;;;1.50;;
14849;SDS011;7517;48.400;11.770;2023-04-25T07:56:42;1.50;;;1.40;;
14849;SDS011;7517;48.400;11.770;2023-04-25T07:59:10;1.53;;;1.43;;
14849;SDS011;7517;48.400;11.770;2023-04-25T08:01:37;1.93;;;1.40;;
14849;SDS011;7517;48.400;11.770;2023-04-25T08:04:05;2.40;;;1.50;;
14849;SDS011;7517;48.400;11.770;2023-04-25T08:06:33;2.20;;;1.40;;
14849;SDS011;7517;48.400;11.770;2023-04-25T08:09:01;1.77;;;1.07;;
14849;SDS011;7517;48.400;11.770;2023-04-25T08:11:29;1.33;;;1.23;;
14849;SDS011;7517;48.400;11.770;2023-04-25T08:13:56;3.00;;;1.40;;
14849;SDS011;7517;48.400;11.770;2023-04-25T08:16:25;1.50;;;1.40;;
14849;SDS011;7517;48.400;11.770;2023-04-25T08:18:52;2.33;;;1.20;;
14849;SDS011;7517;48.400;11.770;2023-04-25T08:21:20;1.27;;;1.13;;
14849;SDS011;7517;48.400;11.770;2023-04-25T08:23:50;1.33;;;1.20;;
14849;SDS011;7517;48.400;11.770;2023-04-25T08:26:18;2.80;;;1.80;;
14849;SDS011;7517;48.400;11.770;2023-04-25T08:28:45;4.10;;;1.33;;
14849;SDS011;7517;48.400;11.770;2023-04-25T08:31:13;1.50;;;1.30;;
14849;SDS011;7517;48.400;11.770;2023-04-25T08:33:41;1.37;;;1.27;;
14849;SDS011;7517;48.400;11.770;2023-04-25T08:36:09;1.50;;;1.40;;
14849;SDS011;7517;48.400;11.770;2023-04-25T08:38:37;1.20;;;1.20;;
14849;SDS011;7517;48.400;11.770;2023-04-25T08:41:04;1.57;;;1.13;;
14849;SDS011;7517;48.400;11.770;2023-04-25T08:43:32;1.70;;;1.30;;
14849;SDS011;7517;48.400;11.770;2023-04-25T08:46:01;1.50;;;1.27;;
14849;SDS011;7517;48.400;11.770;2023-04-25T08:48:29;1.40;;;1.30;;
14849;SDS011;7517;48.400;11.770;2023-04-25T08:51:01;1.53;;;1.30;;
14849;SDS011;7517;48.400;11.770;2023-04-25T08:53:33;1.83;;;1.40;;
14849;SDS011;7517;48.400;11.770;2023-04-25T08:56:01;1.77;;;1.30;;
14849;SDS011;7517;48.400;11.770;2023-04-25T08:58:30;1.33;;;1.23;;
14849;SDS011;7517;48.400;11.770;2023-04-25T09:00:59;1.87;;;1.50;;
14849;SDS011;7517;48.400;11.770;2023-04-25T09:03:27;0.90;;;0.90;;
14849;SDS011;7517;48.400;11.770;2023-04-25T09:05:55;1.30;;;1.07;;
14849;SDS011;7517;48.400;11.770;2023-04-25T09:08:25;1.27;;;1.07;;
14849;SDS011;7517;48.400;11.770;2023-04-25T09:10:52;1.07;;;0.90;;
14849;SDS011;7517;48.400;11.770;2023-04-25T09:13:23;0.70;;;0.70;;
14849;SDS011;7517;48.400;11.770;2023-04-25T09:15:53;0.70;;;0.70;;
14849;SDS011;7517;48.400;11.770;2023-04-25T09:18:23;1.00;;;0.87;;
14849;SDS011;7517;48.400;11.770;2023-04-25T09:20:52;0.80;;;0.80;;
14849;SDS011;7517;48.400;11.770;2023-04-25T09:23:20;0.77;;;0.77;;
14849;SDS011;7517;48.400;11.770;2023-04-25T09:25:50;1.17;;;0.80;;
14849;SDS011;7517;48.400;11.770;2023-04-25T09:28:22;1.63;;;1.13;;
14849;SDS011;7517;48.400;11.770;2023-04-25T09:30:54;0.73;;;0.70;;
14849;SDS011;7517;48.400;11.770;2023-04-25T09:33:26;0.87;;;0.87;;
14849;SDS011;7517;48.400;11.770;2023-04-25T09:36:01;1.20;;;1.00;;
14849;SDS011;7517;48.400;11.770;2023-04-25T09:38:32;1.30;;;1.20;;
14849;SDS011;7517;48.400;11.770;2023-04-25T09:41:08;2.40;;;1.00;;
14849;SDS011;7517;48.400;11.770;2023-04-25T09:43:37;1.23;;;1.13;;
14849;SDS011;7517;48.400;11.770;2023-04-25T09:46:08;2.67;;;1.10;;
14849;SDS011;7517;48.400;11.770;2023-04-25T09:48:36;1.10;;;1.00;;
14849;SDS011;7517;48.400;11.770;2023-04-25T09:51:05;0.97;;;0.93;;
14849;SDS011;7517;48.400;11.770;2023-04-25T09:53:34;1.20;;;1.10;;
14849;SDS011;7517;48.400;11.770;2023-04-25T09:56:04;0.90;;;0.90;;
14849;SDS011;7517;48.400;11.770;2023-04-25T09:58:37;1.20;;;1.10;;
14849;SDS011;7517;48.400;11.770;2023-04-25T10:01:07;1.63;;;1.00;;
14849;SDS011;7517;48.400;11.770;2023-04-25T10:03:36;2.97;;;1.00;;
14849;SDS011;7517;48.400;11.770;2023-04-25T10:06:07;0.90;;;0.90;;
14849;SDS011;7517;48.400;11.770;2023-04-25T10:08:40;1.20;;;0.97;;
14849;SDS011;7517;48.400;11.770;2023-04-25T10:11:12;1.00;;;0.80;;
14849;SDS011;7517;48.400;11.770;2023-04-25T10:13:42;0.83;;;0.83;;
14849;SDS011;7517;48.400;11.770;2023-04-25T10:16:10;1.43;;;1.00;;
14849;SDS011;7517;48.400;11.770;2023-04-25T10:18:38;1.17;;;0.80;;
14849;SDS011;7517;48.400;11.770;2023-04-25T10:21:05;0.70;;;0.70;;
14849;SDS011;7517;48.400;11.770;2023-04-25T10:23:34;0.67;;;0.67;;
14849;SDS011;7517;48.400;11.770;2023-04-25T10:26:03;0.90;;;0.90;;
14849;SDS011;7517;48.400;11.770;2023-04-25T10:28:45;1.37;;;0.80;;
14849;SDS011;7517;48.400;11.770;2023-04-25T10:31:22;1.00;;;0.80;;
14849;SDS011;7517;48.400;11.770;2023-04-25T10:33:50;2.30;;;0.90;;
14849;SDS011;7517;48.400;11.770;2023-04-25T10:36:18;0.97;;;0.90;;
14849;SDS011;7517;48.400;11.770;2023-04-25T10:38:48;3.50;;;1.00;;
14849;SDS011;7517;48.400;11.770;2023-04-25T10:41:18;1.40;;;1.30;;
14849;SDS011;7517;48.400;11.770;2023-04-25T10:43:49;1.20;;;1.10;;
14849;SDS011;7517;48.400;11.770;2023-04-25T10:46:26;1.00;;;1.00;;
14849;SDS011;7517;48.400;11.770;2023-04-25T10:48:56;1.00;;;1.00;;
14849;SDS011;7517;48.400;11.770;2023-04-25T10:51:26;1.97;;;1.43;;
14849;SDS011;7517;48.400;11.770;2023-04-25T10:53:59;1.20;;;1.10;;
14849;SDS011;7517;48.400;11.770;2023-04-25T10:56:28;1.07;;;0.97;;
14849;SDS011;7517;48.400;11.770;2023-04-25T10:59:08;1.20;;;1.10;;
14849;SDS011;7517;48.400;11.770;2023-04-25T11:01:38;0.80;;;0.80;;
14849;SDS011;7517;48.400;11.770;2023-04-25T11:04:18;0.70;;;0.70;;
14849;SDS011;7517;48.400;11.770;2023-04-25T11:06:51;1.03;;;0.97;;
14849;SDS011;7517;48.400;11.770;2023-04-25T11:09:32;1.27;;;1.00;;
14849;SDS011;7517;48.400;11.770;2023-04-25T11:12:00;1.47;;;1.37;;
14849;SDS011;7517;48.400;11.770;2023-04-25T11:14:29;1.20;;;1.17;;
14849;SDS011;7517;48.400;11.770;2023-04-25T11:16:57;1.17;;;1.17;;
14849;SDS011;7517;48.400;11.770;2023-04-25T11:19:26;1.50;;;1.27;;
14849;SDS011;7517;48.400;11.770;2023-04-25T11:21:54;1.00;;;1.00;;
14849;SDS011;7517;48.400;11.770;2023-04-25T11:24:27;0.70;;;0.70;;
14849;SDS011;7517;48.400;11.770;2023-04-25T11:26:54;0.60;;;0.60;;
14849;SDS011;7517;48.400;11.770;2023-04-25T11:29:24;0.80;;;0.80;;
14849;SDS011;7517;48.400;11.770;2023-04-25T11:31:55;0.90;;;0.90;;
14849;SDS011;7517;48.400;11.770;2023-04-25T11:34:24;2.13;;;1.00;;
14849;SDS011;7517;48.400;11.770;2023-04-25T11:36:51;1.43;;;1.13;;
14849;SDS011;7517;48.400;11.770;2023-04-25T11:39:19;0.93;;;0.93;;
14849;SDS011;7517;48.400;11.770;2023-04-25T11:41:47;0.93;;;0.93;;
14849;SDS011;7517;48.400;11.770;2023-04-25T11:44:15;1.43;;;1.20;;
14849;SDS011;7517;48.400;11.770;2023-04-25T11:46:43;1.03;;;1.03;;
14849;SDS011;7517;48.400;11.770;2023-04-25T11:49:11;1.43;;;0.97;;
14849;SDS011;7517;48.400;11.770;2023-04-25T11:51:39;1.57;;;1.10;;
14849;SDS011;7517;48.400;11.770;2023-04-25T11:54:07;1.00;;;1.00;;
14849;SDS011;7517;48.400;11.770;2023-04-25T11:56:34;1.10;;;1.10;;
14849;SDS011;7517;48.400;11.770;2023-04-25T11:59:02;1.03;;;1.00;;
14849;SDS011;7517;48.400;11.770;2023-04-25T12:01:31;1.17;;;1.07;;
14849;SDS011;7517;48.400;11.770;2023-04-25T12:04:09;1.30;;;0.87;;
14849;SDS011;7517;48.400;11.770;2023-04-25T12:06:41;2.00;;;1.00;;
14849;SDS011;7517;48.400;11.770;2023-04-25T12:09:11;1.20;;;1.10;;
14849;SDS011;7517;48.400;11.770;2023-04-25T12:11:43;1.30;;;1.20;;
14849;SDS011;7517;48.400;11.770;2023-04-25T12:14:11;1.07;;;0.97;;
14849;SDS011;7517;48.400;11.770;2023-04-25T12:16:48;1.27;;;1.20;;
14849;SDS011;7517;48.400;11.770;2023-04-25T12:19:19;1.43;;;1.33;;
14849;SDS011;7517;48.400;11.770;2023-04-25T12:21:47;2.23;;;1.60;;
14849;SDS011;7517;48.400;11.770;2023-04-25T12:24:16;1.40;;;1.23;;
14849;SDS011;7517;48.400;11.770;2023-04-25T12:26:49;1.50;;;1.40;;
14849;SDS011;7517;48.400;11.770;2023-04-25T12:29:19;2.27;;;1.57;;
14849;SDS011;7517;48.400;11.770;2023-04-25T12:31:49;1.63;;;1.47;;
14849;SDS011;7517;48.400;11.770;2023-04-25T12:34:19;1.20;;;1.13;;
14849;SDS011;7517;48.400;11.770;2023-04-25T12:36:47;1.40;;;1.30;;
14849;SDS011;7517;48.400;11.770;2023-04-25T12:39:15;0.97;;;0.97;;
14849;SDS011;7517;48.400;11.770;2023-04-25T12:41:43;1.37;;;1.13;;
14849;SDS011;7517;48.400;11.770;2023-04-25T12:44:11;0.70;;;0.70;;
14849;SDS011;7517;48.400;11.770;2023-04-25T12:46:39;0.80;;;0.80;;
14849;SDS011;7517;48.400;11.770;2023-04-25T12:49:07;0.87;;;0.73;;
14849;SDS011;7517;48.400;11.770;2023-04-25T12:51:36;0.67;;;0.67;;
14849;SDS011;7517;48.400;11.770;2023-04-25T12:54:05;0.60;;;0.60;;
14849;SDS011;7517;48.400;11.770;2023-04-25T12:56:33;0.80;;;0.80;;
14849;SDS011;7517;48.400;11.770;2023-04-25T12:59:01;1.23;;;1.20;;
14849;SDS011;7517;48.400;11.770;2023-04-25T13:01:29;2.70;;;1.30;;
14849;SDS011;7517;48.400;11.770;2023-04-25T13:03:57;1.20;;;1.10;;
14849;SDS011;7517;48.400;11.770;2023-04-25T13:06:24;1.10;;;1.03;;
14849;SDS011;7517;48.400;11.770;2023-04-25T13:08:53;2.00;;;1.00;;
14849;SDS011;7517;48.400;11.770;2023-04-25T13:11:21;0.73;;;0.73;;
14849;SDS011;7517;48.400;11.770;2023-04-25T13:13:51;0.77;;;0.77;;
14849;SDS011;7517;48.400;11.770;2023-04-25T13:16:18;1.67;;;1.57;;
14849;SDS011;7517;48.400;11.770;2023-04-25T13:18:47;1.90;;;1.80;;
14849;SDS011;7517;48.400;11.770;2023-04-25T13:21:14;1.17;;;1.07;;
14849;SDS011;7517;48.400;11.770;2023-04-25T13:23:41;0.60;;;0.60;;
14849;SDS011;7517;48.400;11.770;2023-04-25T13:26:12;1.10;;;1.10;;
14849;SDS011;7517;48.400;11.770;2023-04-25T13:28:40;0.60;;;0.60;;
14849;SDS011;7517;48.400;11.770;2023-04-25T13:31:07;0.50;;;0.50;;
14849;SDS011;7517;48.400;11.770;2023-04-25T13:33:34;0.57;;;0.57;;
14849;SDS011;7517;48.400;11.770;2023-04-25T13:36:01;0.50;;;0.50;;
14849;SDS011;7517;48.400;11.770;2023-04-25T13:38:29;0.70;;;0.70;;
14849;SDS011;7517;48.400;11.770;2023-04-25T13:40:56;1.00;;;1.00;;
14849;SDS011;7517;48.400;11.770;2023-04-25T13:43:24;0.90;;;0.90;;
14849;SDS011;7517;48.400;11.770;2023-04-25T13:45:52;0.80;;;0.80;;
14849;SDS011;7517;48.400;11.770;2023-04-25T13:48:19;0.80;;;0.80;;
14849;SDS011;7517;48.400;11.770;2023-04-25T13:50:47;0.80;;;0.80;;
14849;SDS011;7517;48.400;11.770;2023-04-25T13:53:14;0.77;;;0.77;;
14849;SDS011;7517;48.400;11.770;2023-04-25T13:55:42;0.70;;;0.70;;
14849;SDS011;7517;48.400;11.770;2023-04-25T13:58:09;0.80;;;0.80;;
14849;SDS011;7517;48.400;11.770;2023-04-25T14:00:38;0.87;;;0.83;;
14849;SDS011;7517;48.400;11.770;2023-04-25T14:03:08;0.70;;;0.70;;
14849;SDS011;7517;48.400;11.770;2023-04-25T14:05:35;0.80;;;0.80;;
14849;SDS011;7517;48.400;11.770;2023-04-25T14:08:05;0.80;;;0.80;;
14849;SDS011;7517;48.400;11.770;2023-04-25T14:10:33;0.60;;;0.60;;
14849;SDS011;7517;48.400;11.770;2023-04-25T14:13:01;0.50;;;0.50;;
14849;SDS011;7517;48.400;11.770;2023-04-25T14:15:29;0.63;;;0.63;;
14849;SDS011;7517;48.400;11.770;2023-04-25T14:17:59;0.70;;;0.70;;
14849;SDS011;7517;48.400;11.770;2023-04-25T14:20:29;0.70;;;0.70;;
14849;SDS011;7517;48.400;11.770;2023-04-25T14:22:56;0.90;;;0.90;;
14849;SDS011;7517;48.400;11.770;2023-04-25T14:25:24;0.70;;;0.70;;
14849;SDS011;7517;48.400;11.770;2023-04-25T14:27:52;0.73;;;0.60;;
14849;SDS011;7517;48.400;11.770;2023-04-25T14:30:19;0.63;;;0.63;;
14849;SDS011;7517;48.400;11.770;2023-04-25T14:32:48;0.90;;;0.90;;
14849;SDS011;7517;48.400;11.770;2023-04-25T14:35:17;0.70;;;0.70;;
14849;SDS011;7517;48.400;11.770;2023-04-25T14:37:44;0.77;;;0.77;;
14849;SDS011;7517;48.400;11.770;2023-04-25T14:40:12;0.60;;;0.60;;
14849;SDS011;7517;48.400;11.770;2023-04-25T14:42:41;1.13;;;1.10;;
14849;SDS011;7517;48.400;11.770;2023-04-25T14:45:08;1.10;;;1.00;;
14849;SDS011;7517;48.400;11.770;2023-04-25T14:47:36;1.00;;;0.87;;
14849;SDS011;7517;48.400;11.770;2023-04-25T14:50:04;1.00;;;0.87;;
14849;SDS011;7517;48.400;11.770;2023-04-25T14:52:35;0.60;;;0.60;;
14849;SDS011;7517;48.400;11.770;2023-04-25T14:55:02;0.60;;;0.60;;